Time;durP1;ratioP1;P1;durP2;ratioP2;P2;SDS_P1;SDS_P2;PMS_P1;PMS_P2;Temp;Humidity;BMP_temperature;BMP_pressure;BME280_temperature;BME280_humidity;BME280_pressure;Samples;Min_cycle;Max_cycle;Signal;HPM_P1;HPM_P2
2022/03/15 00:01:23;;;;;;;;;14.00;13.75;;;;;10.98;58.06;102280.94;5033402;28;49942;-62
2022/03/15 00:03:48;;;;;;;;;15.75;13.25;;;;;10.99;57.84;102279.22;5032262;28;49997;-62
2022/03/15 00:06:15;;;;;;;;;14.25;14.00;;;;;10.87;58.11;102269.97;5033592;28;50523;-62
2022/03/15 00:08:40;;;;;;;;;14.50;10.50;;;;;11.00;58.04;102287.19;5032732;28;49882;-63
2022/03/15 00:11:06;;;;;;;;;18.75;16.50;;;;;11.01;57.98;102280.19;5033053;28;49977;-62
2022/03/15 00:13:37;;;;;;;;;15.00;11.25;;;;;11.02;57.66;102274.09;5033084;28;50328;-63
2022/03/15 00:16:03;;;;;;;;;19.00;14.75;;;;;11.03;57.69;102273.28;5032499;28;49839;-63
2022/03/15 00:18:30;;;;;;;;;15.75;13.75;;;;;11.01;57.87;102259.19;5033024;28;50668;-63
2022/03/15 00:21:04;;;;;;;;;17.75;13.25;;;;;11.04;57.96;102264.56;5032936;28;49161;-63
2022/03/15 00:23:31;;;;;;;;;14.75;11.25;;;;;10.85;57.77;102220.81;5032842;28;49843;-65
2022/03/15 00:25:57;;;;;;;;;9.00;8.00;;;;;11.07;58.14;102262.94;5033154;28;49660;-63
2022/03/15 00:28:22;;;;;;;;;16.00;9.75;;;;;10.85;57.55;102234.84;5032478;28;50820;-62
2022/03/15 00:30:49;;;;;;;;;12.25;9.75;;;;;11.04;57.88;102275.06;5032579;28;49851;-62
2022/03/15 00:33:15;;;;;;;;;13.50;12.00;;;;;11.04;57.58;102272.44;5032708;28;49832;-68
2022/03/15 00:35:41;;;;;;;;;19.50;12.50;;;;;10.94;57.47;102257.13;5032749;28;49716;-63
2022/03/15 00:38:07;;;;;;;;;12.25;9.00;;;;;10.73;58.28;102228.19;5032473;28;50630;-62
2022/03/15 00:40:33;;;;;;;;;16.00;15.00;;;;;10.97;57.96;102263.38;5032905;28;49956;-63
2022/03/15 00:42:58;;;;;;;;;7.00;7.00;;;;;10.92;57.95;102256.16;5032906;28;49721;-62
2022/03/15 00:45:24;;;;;;;;;12.50;12.00;;;;;10.96;58.30;102266.84;5032712;28;49944;-63
2022/03/15 00:47:53;;;;;;;;;8.50;8.50;;;;;10.96;58.18;102265.94;5032233;28;49717;-62
2022/03/15 00:50:20;;;;;;;;;16.00;15.00;;;;;10.57;58.42;102230.13;5032323;28;49798;-63
2022/03/15 00:52:46;;;;;;;;;12.25;10.25;;;;;10.88;58.24;102271.75;5032520;28;49800;-62
2022/03/15 00:55:12;;;;;;;;;10.75;9.75;;;;;10.85;58.85;102260.25;5032461;28;49822;-62
2022/03/15 00:57:38;;;;;;;;;15.00;12.00;;;;;10.91;58.55;102267.50;5032442;28;49849;-63
2022/03/15 01:00:06;;;;;;;;;12.25;10.75;;;;;10.87;58.53;102253.31;5032504;28;50021;-65
2022/03/15 01:02:31;;;;;;;;;14.75;13.75;;;;;10.64;58.93;102218.19;5032505;28;49899;-63
2022/03/15 01:04:56;;;;;;;;;12.00;9.00;;;;;10.80;58.45;102248.63;5032237;28;49895;-63
2022/03/15 01:07:22;;;;;;;;;12.75;12.75;;;;;10.63;58.32;102224.25;5013128;28;51140;-63
2022/03/15 01:09:48;;;;;;;;;15.25;15.00;;;;;10.52;58.64;102196.66;5031997;28;49833;-62
2022/03/15 01:12:13;;;;;;;;;10.00;10.00;;;;;10.82;58.49;102239.09;5032213;28;50097;-62
2022/03/15 01:14:38;;;;;;;;;12.25;11.50;;;;;10.77;58.77;102227.47;5032291;28;49586;-61
2022/03/15 01:17:04;;;;;;;;;14.25;11.25;;;;;10.85;59.15;102229.59;5032227;28;50488;-62
2022/03/15 01:19:29;;;;;;;;;14.00;14.00;;;;;10.80;58.73;102224.97;5032052;28;49674;-62
2022/03/15 01:21:56;;;;;;;;;14.00;13.00;;;;;10.87;59.29;102227.94;5032017;28;49901;-62
2022/03/15 01:24:21;;;;;;;;;11.50;10.00;;;;;10.80;59.05;102219.72;5031852;28;49953;-63
2022/03/15 01:26:49;;;;;;;;;13.50;12.25;;;;;10.86;59.04;102226.16;5031605;28;50529;-62
2022/03/15 01:29:14;;;;;;;;;12.25;10.50;;;;;10.81;58.98;102217.19;5032080;28;49846;-62
2022/03/15 01:31:39;;;;;;;;;16.25;13.75;;;;;10.87;58.69;102220.06;5031983;28;49924;-62
2022/03/15 01:34:05;;;;;;;;;10.00;9.00;;;;;10.88;58.50;102220.94;5032109;28;49742;-62
2022/03/15 01:36:30;;;;;;;;;10.75;7.25;;;;;10.76;58.75;102186.28;5031738;28;49799;-62
2022/03/15 01:38:57;;;;;;;;;12.75;9.75;;;;;10.85;58.95;102195.47;5031688;28;49941;-61
2022/03/15 01:41:23;;;;;;;;;17.25;10.00;;;;;10.71;58.95;102175.59;5031835;28;49873;-62
2022/03/15 01:43:49;;;;;;;;;9.75;8.75;;;;;10.87;59.38;102196.41;5030913;28;49754;-61
2022/03/15 01:46:16;;;;;;;;;13.50;11.00;;;;;10.82;59.08;102187.44;5031548;28;49703;-62
2022/03/15 01:48:42;;;;;;;;;12.75;11.50;;;;;10.29;58.95;102107.25;5031561;28;49891;-62
2022/03/15 01:51:09;;;;;;;;;8.25;5.75;;;;;10.66;59.32;102152.59;5031781;28;49817;-62
2022/03/15 01:53:37;;;;;;;;;14.50;10.00;;;;;10.87;59.09;102187.63;5031567;28;49975;-63
2022/03/15 01:56:02;;;;;;;;;10.75;10.75;;;;;10.69;59.28;102147.44;5031145;28;49969;-61
2022/03/15 01:58:28;;;;;;;;;11.50;8.75;;;;;10.56;59.06;102130.28;5031489;28;50023;-61
2022/03/15 02:00:53;;;;;;;;;18.00;12.00;;;;;10.83;59.56;102173.47;5031346;28;49854;-62
2022/03/15 02:03:19;;;;;;;;;9.50;9.25;;;;;10.83;59.43;102170.84;5031517;28;49804;-62
2022/03/15 02:05:45;;;;;;;;;12.25;10.00;;;;;10.85;59.40;102168.28;5031219;28;49843;-62
2022/03/15 02:08:15;;;;;;;;;13.25;13.25;;;;;10.77;59.13;102156.56;5031151;28;49688;-62
2022/03/15 02:10:41;;;;;;;;;8.25;8.25;;;;;10.81;59.51;102164.66;5031510;28;49830;-63
2022/03/15 02:13:09;;;;;;;;;13.75;10.50;;;;;10.76;59.82;102146.88;5031470;28;49886;-62
2022/03/15 02:15:34;;;;;;;;;12.00;9.25;;;;;10.83;59.14;102156.81;5030902;28;49844;-62
2022/03/15 02:17:59;;;;;;;;;14.50;13.00;;;;;10.79;59.13;102154.88;5030294;28;49718;-62
2022/03/15 02:20:28;;;;;;;;;8.00;8.00;;;;;10.79;59.48;102155.78;5031299;28;50012;-64
2022/03/15 02:22:53;;;;;;;;;14.50;12.00;;;;;10.81;59.29;102158.50;5031371;28;49706;-65
2022/03/15 02:25:19;;;;;;;;;11.75;11.00;;;;;10.74;59.82;102148.56;5030826;28;49721;-62
2022/03/15 02:27:45;;;;;;;;;15.75;11.25;;;;;10.81;59.30;102145.38;5030900;28;49709;-63
2022/03/15 02:30:11;;;;;;;;;15.75;15.00;;;;;10.74;59.82;102128.44;5030981;28;50175;-61
2022/03/15 02:32:38;;;;;;;;;11.50;10.25;;;;;10.83;59.53;102138.44;5031319;28;49864;-62
2022/03/15 02:35:04;;;;;;;;;8.25;8.25;;;;;10.84;59.41;102135.88;5030664;28;49644;-61
2022/03/15 02:37:29;;;;;;;;;11.50;11.50;;;;;10.76;59.63;102118.00;5030648;28;49640;-61
2022/03/15 02:39:55;;;;;;;;;13.75;9.75;;;;;10.82;59.46;102129.66;5030730;28;50047;-61
2022/03/15 02:42:20;;;;;;;;;9.00;9.00;;;;;10.60;59.66;102092.81;5031086;28;49806;-61
2022/03/15 02:44:46;;;;;;;;;12.00;8.00;;;;;10.84;59.73;102122.72;5030487;28;50252;-61
2022/03/15 02:47:11;;;;;;;;;10.00;10.00;;;;;10.78;59.34;102118.94;5031010;28;49919;-61
2022/03/15 02:49:37;;;;;;;;;10.00;8.75;;;;;10.49;59.57;102057.34;5030785;28;50072;-62
2022/03/15 02:52:03;;;;;;;;;12.25;11.75;;;;;10.89;59.45;102115.03;5030749;28;49702;-62
2022/03/15 02:54:29;;;;;;;;;12.50;12.50;;;;;10.70;59.81;102081.84;5030005;28;50597;-61
2022/03/15 02:56:54;;;;;;;;;11.25;11.25;;;;;10.87;60.03;102114.06;5030318;28;49729;-61
2022/03/15 02:59:20;;;;;;;;;15.00;11.25;;;;;10.66;59.46;102064.19;5030518;28;50283;-61
2022/03/15 03:01:47;;;;;;;;;12.75;10.00;;;;;10.96;60.07;102096.06;5030806;28;49806;-61
2022/03/15 03:04:14;;;;;;;;;16.50;14.00;;;;;10.99;60.02;102105.78;5030446;28;49738;-61
2022/03/15 03:06:43;;;;;;;;;9.00;9.00;;;;;10.78;60.20;102064.69;5030507;28;49651;-62
2022/03/15 03:09:10;;;;;;;;;10.50;10.50;;;;;10.56;59.88;102030.50;5030332;28;49766;-61
2022/03/15 03:11:36;;;;;;;;;11.25;11.25;;;;;10.73;60.33;102039.09;5030556;28;49760;-64
2022/03/15 03:14:02;;;;;;;;;9.00;9.00;;;;;10.63;60.32;102031.66;5030132;28;50535;-61
2022/03/15 03:16:28;;;;;;;;;20.25;13.75;;;;;10.99;60.76;102079.50;5030263;28;50045;-62
2022/03/15 03:18:57;;;;;;;;;8.75;8.50;;;;;10.89;60.71;102070.38;5030174;28;49813;-62
2022/03/15 03:21:25;;;;;;;;;8.75;7.50;;;;;11.11;61.01;102096.69;5029933;28;49819;-62
2022/03/15 03:23:51;;;;;;;;;12.25;9.25;;;;;11.02;60.87;102062.16;5030049;28;49965;-61
2022/03/15 03:26:17;;;;;;;;;9.00;8.00;;;;;11.16;62.20;102081.97;5030139;28;49670;-62
2022/03/15 03:28:42;;;;;;;;;9.50;8.00;;;;;11.05;61.84;102059.63;5029808;28;49801;-62
2022/03/15 03:31:09;;;;;;;;;8.25;6.75;;;;;11.21;62.25;102071.66;5030251;28;49705;-62
2022/03/15 03:33:36;;;;;;;;;8.25;7.75;;;;;11.29;63.42;102079.81;5030060;28;50533;-62
2022/03/15 03:36:03;;;;;;;;;9.25;8.25;;;;;11.34;63.16;102094.94;5029978;28;49839;-62
2022/03/15 03:38:30;;;;;;;;;9.00;8.25;;;;;11.13;63.25;102049.44;5029797;28;49936;-61
2022/03/15 03:40:56;;;;;;;;;7.75;7.00;;;;;11.42;63.43;102090.88;5030091;28;50158;-62
2022/03/15 03:43:21;;;;;;;;;8.00;6.00;;;;;11.44;64.15;102099.72;5023533;28;49882;-62
2022/03/15 03:45:48;;;;;;;;;7.50;7.50;;;;;11.45;65.01;102091.00;5029765;28;50010;-62
2022/03/15 03:48:13;;;;;;;;;7.25;7.00;;;;;11.48;65.17;102092.84;5029769;28;49811;-61
2022/03/15 03:50:40;;;;;;;;;9.00;8.50;;;;;11.35;65.46;102072.19;5029972;28;50014;-62
2022/03/15 03:53:06;;;;;;;;;12.50;12.50;;;;;11.50;65.87;102085.03;5029464;28;50285;-62
2022/03/15 03:55:32;;;;;;;;;8.50;8.50;;;;;11.39;66.33;102064.47;5029588;28;49588;-61
2022/03/15 03:57:58;;;;;;;;;11.50;10.50;;;;;11.36;66.04;102058.19;5029820;28;49619;-62
2022/03/15 04:00:24;;;;;;;;;14.75;9.75;;;;;11.53;66.54;102077.25;5030150;28;49767;-61
2022/03/15 04:02:50;;;;;;;;;9.00;8.00;;;;;11.25;66.48;102039.38;5029588;28;50077;-62
2022/03/15 04:05:15;;;;;;;;;9.75;9.75;;;;;11.24;66.53;102037.59;5029706;28;49891;-62
2022/03/15 04:07:43;;;;;;;;;11.25;10.00;;;;;11.55;67.29;102075.56;5029631;28;49758;-62
2022/03/15 04:10:09;;;;;;;;;9.50;9.50;;;;;11.55;67.47;102075.56;5029630;28;50125;-62
2022/03/15 04:12:36;;;;;;;;;10.75;10.50;;;;;11.18;67.63;102003.19;5029497;28;50249;-62
2022/03/15 04:15:05;;;;;;;;;10.00;9.00;;;;;11.14;68.21;101998.66;5029588;28;49714;-62
2022/03/15 04:17:31;;;;;;;;;7.75;7.75;;;;;11.48;68.15;102056.03;5029580;28;49615;-62
2022/03/15 04:19:57;;;;;;;;;9.25;9.25;;;;;11.58;67.98;102063.44;5029647;28;49681;-62
2022/03/15 04:22:25;;;;;;;;;7.75;7.75;;;;;11.59;68.53;102069.59;5029334;28;49714;-62
2022/03/15 04:24:50;;;;;;;;;15.00;11.00;;;;;10.31;68.43;101843.13;5029051;28;49825;-61
2022/03/15 04:27:16;;;;;;;;;14.75;13.50;;;;;11.58;69.00;102068.72;5029059;28;49783;-62
2022/03/15 04:29:42;;;;;;;;;11.75;10.00;;;;;11.51;69.68;102061.41;5029536;28;49871;-62
2022/03/15 04:32:08;;;;;;;;;10.00;9.00;;;;;11.55;69.73;102062.41;5029399;28;51252;-62
2022/03/15 04:34:33;;;;;;;;;11.00;11.00;;;;;11.56;70.00;102064.19;5029388;28;49892;-62
2022/03/15 04:36:59;;;;;;;;;10.75;10.75;;;;;11.36;69.91;102029.28;5029253;28;49739;-62
2022/03/15 04:39:24;;;;;;;;;12.50;11.50;;;;;11.34;70.18;102026.59;5029266;28;50026;-64
2022/03/15 04:41:50;;;;;;;;;10.75;10.75;;;;;11.51;70.61;102053.53;5031107;28;49963;-62
2022/03/15 04:44:16;;;;;;;;;12.50;10.00;;;;;11.49;70.93;102049.06;5032432;28;49815;-62
2022/03/15 04:46:41;;;;;;;;;12.25;11.25;;;;;11.49;70.94;102049.94;5032530;28;49774;-61
2022/03/15 04:49:06;;;;;;;;;10.00;9.50;;;;;11.24;71.07;102006.06;5032898;28;49764;-62
2022/03/15 04:51:32;;;;;;;;;18.00;15.00;;;;;11.42;71.62;102048.81;5032416;28;49924;-62
2022/03/15 04:53:57;;;;;;;;;12.75;11.50;;;;;11.22;71.84;102013.00;5032318;28;49860;-62
2022/03/15 04:56:23;;;;;;;;;11.75;10.25;;;;;11.46;71.70;102058.59;5032557;28;49637;-61
2022/03/15 04:58:49;;;;;;;;;10.75;9.00;;;;;11.46;71.99;102049.81;5032501;28;49922;-62
2022/03/15 05:01:14;;;;;;;;;11.25;10.00;;;;;11.49;72.13;102043.81;5032212;28;49977;-61
2022/03/15 05:03:40;;;;;;;;;11.50;11.50;;;;;11.36;72.37;102024.00;5032122;28;49600;-62
2022/03/15 05:06:05;;;;;;;;;14.75;14.75;;;;;11.51;72.31;102050.00;5032482;28;49849;-61
2022/03/15 05:08:31;;;;;;;;;12.50;12.50;;;;;11.38;72.29;102030.22;5032261;28;49611;-61
2022/03/15 05:11:05;;;;;;;;;15.75;14.75;;;;;11.50;72.63;102042.97;5032063;28;50617;-62
2022/03/15 05:13:31;;;;;;;;;16.50;15.50;;;;;11.47;72.72;102046.34;5032455;28;49837;-63
2022/03/15 05:15:56;;;;;;;;;16.00;14.75;;;;;11.42;73.04;102042.66;5032027;28;49903;-61
2022/03/15 05:18:23;;;;;;;;;12.25;11.00;;;;;11.46;72.44;102039.28;5032052;28;49739;-61
2022/03/15 05:20:48;;;;;;;;;16.50;16.50;;;;;11.14;72.71;101993.41;5031745;28;49880;-62
2022/03/15 05:23:13;;;;;;;;;15.75;14.25;;;;;11.43;73.16;102034.81;5031962;28;49893;-61
2022/03/15 05:25:39;;;;;;;;;15.00;12.25;;;;;11.39;72.99;102022.41;5032226;28;49660;-61
2022/03/15 05:28:09;;;;;;;;;16.25;14.75;;;;;11.32;72.60;102019.50;5032064;28;49909;-61
2022/03/15 05:30:35;;;;;;;;;14.25;10.25;;;;;11.55;72.72;102041.38;5031920;28;50382;-61
2022/03/15 05:33:00;;;;;;;;;13.75;10.75;;;;;11.57;72.41;102044.94;5031885;28;49712;-62
2022/03/15 05:35:26;;;;;;;;;17.00;12.75;;;;;11.56;72.79;102049.31;5031564;28;49505;-62
2022/03/15 05:37:51;;;;;;;;;17.25;14.00;;;;;11.57;73.12;102045.84;5031571;28;49624;-61
2022/03/15 05:40:17;;;;;;;;;10.25;10.25;;;;;11.57;72.69;102053.72;5031630;28;49894;-60
2022/03/15 05:42:42;;;;;;;;;14.50;11.25;;;;;11.59;73.06;102054.72;5031731;28;50039;-61
2022/03/15 05:45:08;;;;;;;;;14.25;12.25;;;;;11.42;73.03;102019.00;5031991;28;49863;-62
2022/03/15 05:47:34;;;;;;;;;16.25;14.25;;;;;11.59;73.20;102046.81;5031839;28;49774;-61
2022/03/15 05:50:00;;;;;;;;;14.75;11.50;;;;;11.55;73.09;102051.91;5031481;28;50575;-61
2022/03/15 05:52:26;;;;;;;;;15.25;15.25;;;;;11.43;73.28;102016.41;5029249;28;51050;-62
2022/03/15 05:54:51;;;;;;;;;15.50;14.75;;;;;11.60;73.41;102053.88;5031245;28;49878;-61
2022/03/15 05:57:17;;;;;;;;;22.00;20.25;;;;;11.44;73.65;102036.63;5030435;28;49971;-62
2022/03/15 05:59:42;;;;;;;;;22.00;21.00;;;;;11.31;73.96;102010.72;5030839;28;49851;-62
2022/03/15 06:02:07;;;;;;;;;18.50;18.25;;;;;11.51;74.05;102053.53;5031213;28;50355;-61
2022/03/15 06:04:34;;;;;;;;;17.25;17.25;;;;;11.46;74.51;102047.19;5031684;28;50424;-61
2022/03/15 06:07:01;;;;;;;;;17.00;15.50;;;;;11.42;74.41;102042.66;5036323;28;50057;-63
2022/03/15 06:09:26;;;;;;;;;15.25;14.50;;;;;11.52;74.02;102051.78;5029499;28;51243;-62
2022/03/15 06:11:52;;;;;;;;;19.00;17.00;;;;;11.23;74.44;102008.63;5019502;28;49708;-65
2022/03/15 06:14:20;;;;;;;;;13.25;13.25;;;;;11.52;74.35;102062.31;5045759;28;49488;-64
2022/03/15 06:16:46;;;;;;;;;26.50;25.00;;;;;11.38;74.34;102046.00;5039613;28;49495;-64
2022/03/15 06:19:11;;;;;;;;;28.00;23.00;;;;;11.40;73.93;102042.59;5044791;28;49932;-64
2022/03/15 06:21:37;;;;;;;;;29.00;23.00;;;;;10.96;74.13;101964.69;5046262;28;49266;-65
2022/03/15 06:24:02;;;;;;;;;21.75;17.50;;;;;11.53;74.22;102067.63;5045236;28;49854;-63
2022/03/15 06:26:28;;;;;;;;;22.50;21.25;;;;;11.53;74.17;102066.72;5046466;28;49599;-64
2022/03/15 06:28:54;;;;;;;;;20.75;19.75;;;;;11.52;74.30;102063.22;5045995;28;49522;-64
2022/03/15 06:31:20;;;;;;;;;22.25;20.50;;;;;11.49;74.67;102052.59;5042884;28;49875;-63
2022/03/15 06:33:47;;;;;;;;;16.25;14.75;;;;;11.39;74.33;102040.81;5045795;28;49458;-65
2022/03/15 06:36:12;;;;;;;;;24.25;23.50;;;;;11.49;74.57;102055.22;5045901;28;49495;-71
2022/03/15 06:38:41;;;;;;;;;24.25;22.75;;;;;11.45;74.64;102053.28;5027261;28;51192;-62
2022/03/15 06:41:14;;;;;;;;;22.75;21.25;;;;;11.52;74.79;102062.31;5029728;28;49819;-63
2022/03/15 06:43:40;;;;;;;;;29.25;22.25;;;;;11.55;74.71;102060.69;5026060;28;49790;-65
2022/03/15 06:46:08;;;;;;;;;25.50;23.50;;;;;11.51;74.74;102055.25;5030705;28;49768;-65
2022/03/15 06:48:33;;;;;;;;;28.25;26.00;;;;;11.54;74.98;102056.25;5030374;28;50820;-64
2022/03/15 06:50:59;;;;;;;;;26.25;25.75;;;;;11.46;74.76;102053.34;5030532;28;50076;-66
2022/03/15 06:53:24;;;;;;;;;32.50;29.50;;;;;11.36;75.19;102035.44;5030554;28;50021;-66
2022/03/15 06:55:49;;;;;;;;;27.00;25.75;;;;;11.50;75.09;102064.00;5030706;28;49846;-66
2022/03/15 06:58:15;;;;;;;;;27.25;26.50;;;;;11.49;75.30;102059.56;5030360;28;50460;-66
2022/03/15 07:00:41;;;;;;;;;25.50;25.00;;;;;11.46;75.36;102053.34;5024140;28;49834;-66
2022/03/15 07:03:06;;;;;;;;;27.50;27.50;;;;;11.42;75.25;102040.94;5030554;28;49694;-66
2022/03/15 07:05:32;;;;;;;;;22.00;21.75;;;;;11.41;75.32;102038.25;5030232;28;50016;-66
2022/03/15 07:07:57;;;;;;;;;30.75;30.75;;;;;11.06;75.09;101971.19;5029826;28;51008;-66
2022/03/15 07:10:23;;;;;;;;;28.00;28.00;;;;;11.47;75.59;102054.22;5027286;28;49966;-67
2022/03/15 07:12:48;;;;;;;;;38.00;30.00;;;;;10.92;75.31;101956.63;5030400;28;49731;-66
2022/03/15 07:15:14;;;;;;;;;28.50;26.25;;;;;11.55;75.53;102052.78;5029504;28;49841;-66
2022/03/15 07:17:52;;;;;;;;;35.75;32.25;;;;;11.42;75.40;102032.16;5029890;28;51432;-66
2022/03/15 07:20:18;;;;;;;;;37.00;32.75;;;;;11.61;75.41;102063.56;5030382;28;50093;-64
2022/03/15 07:22:44;;;;;;;;;32.00;28.50;;;;;11.62;75.40;102061.81;5029897;28;50009;-64
2022/03/15 07:25:10;;;;;;;;;34.00;31.25;;;;;11.60;74.84;102058.25;5029045;28;49675;-67
2022/03/15 07:27:36;;;;;;;;;31.25;28.25;;;;;11.32;75.17;102012.50;5010475;28;51625;-65
2022/03/15 07:30:02;;;;;;;;;29.75;25.25;;;;;11.58;74.95;102047.66;5030026;28;49741;-65
2022/03/15 07:32:27;;;;;;;;;25.25;24.00;;;;;11.62;75.39;102064.44;5029998;28;49646;-65
2022/03/15 07:34:53;;;;;;;;;22.50;21.75;;;;;11.68;75.18;102075.22;5029592;28;49800;-64
2022/03/15 07:37:18;;;;;;;;;22.75;21.00;;;;;11.28;75.12;102010.56;5029774;28;49657;-67
2022/03/15 07:39:44;;;;;;;;;25.50;21.75;;;;;11.65;75.38;102068.06;5029870;28;49769;-64
2022/03/15 07:42:10;;;;;;;;;26.00;21.00;;;;;11.65;75.19;102067.19;5029787;28;49773;-62
2022/03/15 07:44:35;;;;;;;;;22.25;19.00;;;;;11.62;75.45;102059.19;5012036;28;50168;-61
2022/03/15 07:47:01;;;;;;;;;23.75;22.00;;;;;11.61;75.36;102062.66;5029623;28;49711;-63
2022/03/15 07:49:27;;;;;;;;;13.50;11.75;;;;;11.70;75.73;102058.63;5029989;28;49781;-63
2022/03/15 07:51:52;;;;;;;;;26.75;23.00;;;;;11.74;75.19;102057.00;5029952;28;50132;-63
2022/03/15 07:54:17;;;;;;;;;29.75;24.75;;;;;11.59;75.63;102031.03;5030030;28;50054;-63
2022/03/15 07:56:44;;;;;;;;;22.50;21.75;;;;;11.77;75.46;102041.31;5029571;28;49788;-63
2022/03/15 07:59:09;;;;;;;;;21.75;17.75;;;;;11.82;75.08;102041.53;5028844;28;49737;-64
2022/03/15 08:01:35;;;;;;;;;21.00;19.00;;;;;11.83;75.27;102040.69;5029788;28;49800;-63
2022/03/15 08:04:01;;;;;;;;;27.50;24.75;;;;;11.56;75.25;102001.97;5029708;28;49839;-63
2022/03/15 08:06:26;;;;;;;;;23.50;22.25;;;;;11.83;74.95;102044.22;5028647;28;49790;-63
2022/03/15 08:08:57;;;;;;;;;16.50;11.75;;;;;11.72;75.10;102032.38;5029573;28;49753;-63
2022/03/15 08:11:26;;;;;;;;;26.25;22.50;;;;;11.78;75.02;102051.03;5029834;28;49940;-63
2022/03/15 08:13:55;;;;;;;;;25.75;23.75;;;;;11.80;75.34;102051.13;5029899;28;49856;-63
2022/03/15 08:16:24;;;;;;;;;28.25;24.00;;;;;11.47;75.44;101988.50;5006611;28;51356;-63
2022/03/15 08:18:52;;;;;;;;;24.25;21.25;;;;;11.82;74.97;102042.44;5033005;28;49828;-64
2022/03/15 08:21:18;;;;;;;;;25.25;22.25;;;;;11.80;74.90;102027.44;5033140;28;49831;-65
2022/03/15 08:23:45;;;;;;;;;23.75;23.75;;;;;11.86;75.23;102040.78;5033032;28;49751;-64
2022/03/15 08:26:10;;;;;;;;;33.75;32.50;;;;;11.76;74.73;102019.38;5032999;28;50392;-64
2022/03/15 08:28:35;;;;;;;;;22.25;22.25;;;;;11.92;75.07;102043.66;5032350;28;49999;-69
2022/03/15 08:31:01;;;;;;;;;35.25;30.25;;;;;11.96;74.82;102059.59;5032560;28;49761;-63
2022/03/15 08:33:26;;;;;;;;;26.00;25.50;;;;;11.73;75.11;102015.75;5032626;28;49926;-63
2022/03/15 08:35:52;;;;;;;;;29.50;27.00;;;;;11.90;74.94;102038.34;5030679;28;50879;-64
2022/03/15 08:38:18;;;;;;;;;24.00;22.75;;;;;11.96;74.96;102051.69;5014058;28;49790;-63
2022/03/15 08:40:43;;;;;;;;;29.00;24.50;;;;;11.90;74.78;102040.06;5032150;28;49718;-64
2022/03/15 08:43:09;;;;;;;;;24.75;23.50;;;;;11.47;74.70;101970.09;5032520;28;49695;-63
2022/03/15 08:45:35;;;;;;;;;29.75;24.00;;;;;11.80;74.76;102014.28;5032631;28;49638;-64
2022/03/15 08:48:00;;;;;;;;;28.00;26.50;;;;;11.82;74.43;102017.84;5032538;28;49802;-63
2022/03/15 08:50:26;;;;;;;;;27.00;25.25;;;;;11.44;74.72;101955.09;5032783;28;49731;-63
2022/03/15 08:52:52;;;;;;;;;24.75;23.00;;;;;12.04;74.81;102052.88;5032326;28;49822;-64
2022/03/15 08:55:18;;;;;;;;;31.00;27.00;;;;;12.07;74.63;102056.47;5032167;28;50419;-64
2022/03/15 08:57:43;;;;;;;;;31.00;29.50;;;;;12.17;74.48;102055.94;5032409;28;50200;-63
2022/03/15 09:00:10;;;;;;;;;31.25;27.75;;;;;12.19;74.20;102057.78;5032491;28;49834;-64
2022/03/15 09:02:36;;;;;;;;;29.00;28.25;;;;;12.23;74.10;102057.03;5032590;28;49719;-63
2022/03/15 09:05:02;;;;;;;;;25.00;23.75;;;;;12.21;74.21;102063.09;5032233;28;50273;-64
2022/03/15 09:07:27;;;;;;;;;31.00;30.25;;;;;12.27;74.01;102081.75;5032460;28;49766;-62
2022/03/15 09:09:53;;;;;;;;;30.75;26.25;;;;;12.18;73.99;102078.78;5032155;28;49911;-64
2022/03/15 09:12:19;;;;;;;;;32.25;31.00;;;;;12.18;74.12;102082.31;5032247;28;49789;-64
2022/03/15 09:14:45;;;;;;;;;27.00;25.25;;;;;12.16;74.52;102077.81;5032169;28;50019;-64
2022/03/15 09:17:10;;;;;;;;;26.75;26.75;;;;;12.19;74.54;102075.31;5031931;28;49790;-64
2022/03/15 09:19:36;;;;;;;;;33.50;29.25;;;;;12.19;74.75;102080.59;5032193;28;49750;-63
2022/03/15 09:22:02;;;;;;;;;28.50;28.00;;;;;12.16;74.80;102064.66;5032403;28;49833;-63
2022/03/15 09:24:28;;;;;;;;;29.00;25.75;;;;;12.09;74.75;102042.50;5031326;28;50083;-62
2022/03/15 09:26:53;;;;;;;;;26.00;25.75;;;;;12.16;74.44;102051.50;5031754;28;49635;-63
2022/03/15 09:29:19;;;;;;;;;29.25;22.75;;;;;11.97;74.06;102039.47;5031928;28;49764;-64
2022/03/15 09:31:44;;;;;;;;;28.75;27.25;;;;;12.17;74.52;102063.84;5031964;28;49719;-63
2022/03/15 09:34:10;;;;;;;;;26.50;24.50;;;;;12.04;74.44;102025.66;5031561;28;50257;-64
2022/03/15 09:36:35;;;;;;;;;36.75;32.25;;;;;12.19;74.69;102041.09;5031665;28;49718;-63
2022/03/15 09:39:01;;;;;;;;;29.25;27.25;;;;;12.44;74.19;102058.59;5031254;28;49821;-63
2022/03/15 09:41:27;;;;;;;;;29.75;28.00;;;;;12.51;73.74;102053.59;5032377;28;49820;-61
2022/03/15 09:43:54;;;;;;;;;30.50;29.50;;;;;12.50;74.12;102029.84;5031640;28;50497;-63
2022/03/15 09:46:23;;;;;;;;;30.75;30.50;;;;;12.58;73.72;102052.97;5031764;28;49748;-63
2022/03/15 09:48:54;;;;;;;;;25.25;22.75;;;;;12.20;74.03;101964.78;5031494;28;49713;-63
2022/03/15 09:51:20;;;;;;;;;30.50;27.50;;;;;12.59;73.08;102024.88;5031953;28;50027;-63
2022/03/15 09:53:48;;;;;;;;;37.50;31.75;;;;;12.59;73.78;102019.63;5031098;28;50499;-61
2022/03/15 09:56:17;;;;;;;;;32.00;32.00;;;;;12.76;73.31;102039.50;5031587;28;49775;-63
2022/03/15 09:58:42;;;;;;;;;33.75;30.25;;;;;12.76;73.15;102021.06;5031662;28;49725;-63
2022/03/15 10:01:14;;;;;;;;;38.50;34.50;;;;;12.89;73.31;102038.16;5031575;28;49857;-63
2022/03/15 10:03:39;;;;;;;;;33.00;30.00;;;;;12.69;73.42;101997.09;5031269;28;51339;-63
2022/03/15 10:06:05;;;;;;;;;35.25;33.00;;;;;12.82;72.65;102010.69;5031274;28;49679;-63
2022/03/15 10:08:30;;;;;;;;;32.25;28.25;;;;;12.95;72.83;102042.72;5031153;28;49723;-64
2022/03/15 10:10:56;;;;;;;;;32.00;26.50;;;;;13.00;72.81;102036.75;5031468;28;50000;-64
2022/03/15 10:13:22;;;;;;;;;29.75;28.75;;;;;13.02;72.59;102042.06;5031177;28;50881;-63
2022/03/15 10:15:59;;;;;;;;;33.75;30.00;;;;;12.90;72.87;102024.13;5031269;28;49788;-63
2022/03/15 10:18:25;;;;;;;;;36.25;34.00;;;;;13.00;72.84;102039.38;5031129;28;50258;-64
2022/03/15 10:20:51;;;;;;;;;33.00;29.25;;;;;12.93;72.62;102033.84;5031311;28;49871;-63
2022/03/15 10:23:19;;;;;;;;;38.50;33.50;;;;;12.85;72.54;102013.44;5030850;28;50388;-64
2022/03/15 10:25:48;;;;;;;;;37.00;34.00;;;;;12.84;72.88;102018.69;5030921;28;49762;-64
2022/03/15 10:28:14;;;;;;;;;36.00;34.75;;;;;12.90;72.49;102043.47;5031069;28;49702;-63
2022/03/15 10:30:41;;;;;;;;;38.00;35.00;;;;;12.60;72.76;101989.78;5031080;28;49801;-62
2022/03/15 10:33:07;;;;;;;;;36.25;33.50;;;;;12.68;72.73;102003.22;5030913;28;50745;-62
2022/03/15 10:35:38;;;;;;;;;23.50;21.50;;;;;12.79;72.24;102026.41;5031080;28;49671;-63
2022/03/15 10:38:04;;;;;;;;;34.25;29.50;;;;;12.69;72.77;102012.91;5030546;28;49737;-63
2022/03/15 10:40:34;;;;;;;;;41.00;33.50;;;;;12.74;72.89;102025.41;5030735;28;49765;-63
2022/03/15 10:43:09;;;;;;;;;33.00;31.25;;;;;12.77;73.23;102030.75;5030134;28;49929;-63
2022/03/15 10:45:37;;;;;;;;;38.50;35.75;;;;;12.41;73.19;101951.44;5030351;28;50013;-62
2022/03/15 10:48:13;;;;;;;;;33.25;31.50;;;;;12.78;72.97;102011.47;5012614;28;49899;-62
2022/03/15 10:50:52;;;;;;;;;38.75;34.25;;;;;12.84;72.79;102023.94;5030905;28;49958;-62
2022/03/15 10:53:18;;;;;;;;;32.00;29.75;;;;;12.68;72.74;102001.47;5030373;28;50576;-73
2022/03/15 10:55:43;;;;;;;;;32.25;30.50;;;;;12.69;72.87;102005.91;5012521;28;49800;-62
2022/03/15 10:58:12;;;;;;;;;33.00;31.75;;;;;12.61;73.01;101987.19;5030546;28;49776;-61
2022/03/15 11:00:40;;;;;;;;;32.25;30.50;;;;;12.72;72.53;102005.97;5030505;28;49772;-61
2022/03/15 11:03:07;;;;;;;;;33.75;33.00;;;;;12.70;72.34;101996.25;5030192;28;50479;-62
2022/03/15 11:05:34;;;;;;;;;34.25;33.50;;;;;12.59;73.17;101949.38;5012300;28;49715;-63
2022/03/15 11:08:09;;;;;;;;;35.50;31.25;;;;;12.52;72.14;101928.97;5012516;28;49846;-62